sensor_id;sensor_type;location;lat;lon;timestamp;P1;P2;P0
30342;PMS5003;17145;49.902;8.680;2022-12-18T00:00:45;79;63;
30342;PMS5003;17145;49.902;8.680;2022-12-18T00:03:13;79;62;
30342;PMS5003;17145;49.902;8.680;2022-12-18T00:05:47;71;60;
30342;PMS5003;17145;49.902;8.680;2022-12-18T00:08:15;86;63;
30342;PMS5003;17145;49.902;8.680;2022-12-18T00:10:43;92;63;
30342;PMS5003;17145;49.902;8.680;2022-12-18T00:13:12;80;69;
30342;PMS5003;17145;49.902;8.680;2022-12-18T00:15:39;64;57;
30342;PMS5003;17145;49.902;8.680;2022-12-18T00:18:06;83;63;
30342;PMS5003;17145;49.902;8.680;2022-12-18T00:20:35;77;64;
30342;PMS5003;17145;49.902;8.680;2022-12-18T00:23:03;77;58;
30342;PMS5003;17145;49.902;8.680;2022-12-18T00:25:32;78;62;
30342;PMS5003;17145;49.902;8.680;2022-12-18T00:28:00;87;61;
30342;PMS5003;17145;49.902;8.680;2022-12-18T00:30:28;88;65;
30342;PMS5003;17145;49.902;8.680;2022-12-18T00:32:57;80;60;
30342;PMS5003;17145;49.902;8.680;2022-12-18T00:35:24;91;60;
30342;PMS5003;17145;49.902;8.680;2022-12-18T00:37:52;74;64;
30342;PMS5003;17145;49.902;8.680;2022-12-18T00:40:19;88;64;
30342;PMS5003;17145;49.902;8.680;2022-12-18T00:42:46;71;61;
30342;PMS5003;17145;49.902;8.680;2022-12-18T00:45:14;81;64;
30342;PMS5003;17145;49.902;8.680;2022-12-18T00:47:41;66;58;
30342;PMS5003;17145;49.902;8.680;2022-12-18T00:50:09;86;60;
30342;PMS5003;17145;49.902;8.680;2022-12-18T00:52:36;80;59;
30342;PMS5003;17145;49.902;8.680;2022-12-18T00:55:07;86;67;
30342;PMS5003;17145;49.902;8.680;2022-12-18T00:57:35;83;64;
30342;PMS5003;17145;49.902;8.680;2022-12-18T01:00:03;79;58;
30342;PMS5003;17145;49.902;8.680;2022-12-18T01:02:31;83;59;
30342;PMS5003;17145;49.902;8.680;2022-12-18T01:04:58;81;60;
30342;PMS5003;17145;49.902;8.680;2022-12-18T01:07:26;81;57;
30342;PMS5003;17145;49.902;8.680;2022-12-18T01:09:53;78;57;
30342;PMS5003;17145;49.902;8.680;2022-12-18T01:12:21;67;54;
30342;PMS5003;17145;49.902;8.680;2022-12-18T01:14:48;66;57;
30342;PMS5003;17145;49.902;8.680;2022-12-18T01:17:15;91;68;
30342;PMS5003;17145;49.902;8.680;2022-12-18T01:19:43;84;65;
30342;PMS5003;17145;49.902;8.680;2022-12-18T01:22:10;70;57;
30342;PMS5003;17145;49.902;8.680;2022-12-18T01:24:38;90;58;
30342;PMS5003;17145;49.902;8.680;2022-12-18T01:27:05;77;57;
30342;PMS5003;17145;49.902;8.680;2022-12-18T01:29:33;85;61;
30342;PMS5003;17145;49.902;8.680;2022-12-18T01:32:00;95;67;
30342;PMS5003;17145;49.902;8.680;2022-12-18T01:34:27;71;54;
30342;PMS5003;17145;49.902;8.680;2022-12-18T01:36:55;85;62;
30342;PMS5003;17145;49.902;8.680;2022-12-18T01:39:22;91;60;
30342;PMS5003;17145;49.902;8.680;2022-12-18T01:41:50;78;60;
30342;PMS5003;17145;49.902;8.680;2022-12-18T01:46:55;84;63;
30342;PMS5003;17145;49.902;8.680;2022-12-18T01:49:23;71;54;
30342;PMS5003;17145;49.902;8.680;2022-12-18T01:51:50;74;58;
30342;PMS5003;17145;49.902;8.680;2022-12-18T01:54:18;80;64;
30342;PMS5003;17145;49.902;8.680;2022-12-18T01:56:45;64;57;
30342;PMS5003;17145;49.902;8.680;2022-12-18T01:59:13;82;60;
30342;PMS5003;17145;49.902;8.680;2022-12-18T02:01:41;66;53;
30342;PMS5003;17145;49.902;8.680;2022-12-18T02:04:18;88;65;
30342;PMS5003;17145;49.902;8.680;2022-12-18T02:06:48;75;58;
30342;PMS5003;17145;49.902;8.680;2022-12-18T02:09:23;87;58;
30342;PMS5003;17145;49.902;8.680;2022-12-18T02:11:59;77;61;
30342;PMS5003;17145;49.902;8.680;2022-12-18T02:14:37;75;51;
30342;PMS5003;17145;49.902;8.680;2022-12-18T02:17:09;77;52;
30342;PMS5003;17145;49.902;8.680;2022-12-18T02:19:45;88;58;
30342;PMS5003;17145;49.902;8.680;2022-12-18T02:22:26;71;55;
30342;PMS5003;17145;49.902;8.680;2022-12-18T02:25:04;58;51;
30342;PMS5003;17145;49.902;8.680;2022-12-18T02:27:40;73;54;
30342;PMS5003;17145;49.902;8.680;2022-12-18T02:30:11;88;61;
30342;PMS5003;17145;49.902;8.680;2022-12-18T02:32:41;70;54;
30342;PMS5003;17145;49.902;8.680;2022-12-18T02:35:13;80;55;
30342;PMS5003;17145;49.902;8.680;2022-12-18T02:37:44;74;58;
30342;PMS5003;17145;49.902;8.680;2022-12-18T02:40:14;70;53;
30342;PMS5003;17145;49.902;8.680;2022-12-18T02:42:43;68;54;
30342;PMS5003;17145;49.902;8.680;2022-12-18T02:45:11;77;59;
30342;PMS5003;17145;49.902;8.680;2022-12-18T02:47:39;89;57;
30342;PMS5003;17145;49.902;8.680;2022-12-18T02:50:13;68;56;
30342;PMS5003;17145;49.902;8.680;2022-12-18T02:52:50;83;60;
30342;PMS5003;17145;49.902;8.680;2022-12-18T02:55:28;65;53;
30342;PMS5003;17145;49.902;8.680;2022-12-18T02:58:03;70;60;
30342;PMS5003;17145;49.902;8.680;2022-12-18T03:00:39;75;53;
30342;PMS5003;17145;49.902;8.680;2022-12-18T03:03:14;80;56;
30342;PMS5003;17145;49.902;8.680;2022-12-18T03:05:49;69;52;
30342;PMS5003;17145;49.902;8.680;2022-12-18T03:08:20;91;63;
30342;PMS5003;17145;49.902;8.680;2022-12-18T03:10:51;76;59;
30342;PMS5003;17145;49.902;8.680;2022-12-18T03:13:25;69;60;
30342;PMS5003;17145;49.902;8.680;2022-12-18T03:16:00;90;62;
30342;PMS5003;17145;49.902;8.680;2022-12-18T03:18:30;73;53;
30342;PMS5003;17145;49.902;8.680;2022-12-18T03:21:03;71;50;
30342;PMS5003;17145;49.902;8.680;2022-12-18T03:23:35;78;57;
30342;PMS5003;17145;49.902;8.680;2022-12-18T03:26:09;79;54;
30342;PMS5003;17145;49.902;8.680;2022-12-18T03:28:40;63;52;
30342;PMS5003;17145;49.902;8.680;2022-12-18T03:31:12;84;61;
30342;PMS5003;17145;49.902;8.680;2022-12-18T03:33:44;65;53;
30342;PMS5003;17145;49.902;8.680;2022-12-18T03:36:17;74;55;
30342;PMS5003;17145;49.902;8.680;2022-12-18T03:38:45;56;46;
30342;PMS5003;17145;49.902;8.680;2022-12-18T03:41:14;71;53;
30342;PMS5003;17145;49.902;8.680;2022-12-18T03:43:48;77;53;
30342;PMS5003;17145;49.902;8.680;2022-12-18T03:46:22;65;48;
30342;PMS5003;17145;49.902;8.680;2022-12-18T03:48:57;80;56;
30342;PMS5003;17145;49.902;8.680;2022-12-18T03:51:30;68;52;
30342;PMS5003;17145;49.902;8.680;2022-12-18T03:54:06;67;54;
30342;PMS5003;17145;49.902;8.680;2022-12-18T03:56:37;65;48;
30342;PMS5003;17145;49.902;8.680;2022-12-18T03:59:08;56;48;
30342;PMS5003;17145;49.902;8.680;2022-12-18T04:01:40;75;51;
30342;PMS5003;17145;49.902;8.680;2022-12-18T04:04:11;74;56;
30342;PMS5003;17145;49.902;8.680;2022-12-18T04:06:42;61;45;
30342;PMS5003;17145;49.902;8.680;2022-12-18T04:09:12;78;56;
30342;PMS5003;17145;49.902;8.680;2022-12-18T04:11:40;75;54;
30342;PMS5003;17145;49.902;8.680;2022-12-18T04:14:07;81;52;
30342;PMS5003;17145;49.902;8.680;2022-12-18T04:16:35;58;52;
30342;PMS5003;17145;49.902;8.680;2022-12-18T04:19:02;72;52;
30342;PMS5003;17145;49.902;8.680;2022-12-18T04:21:30;80;52;
30342;PMS5003;17145;49.902;8.680;2022-12-18T04:23:57;60;47;
30342;PMS5003;17145;49.902;8.680;2022-12-18T04:26:25;61;52;
30342;PMS5003;17145;49.902;8.680;2022-12-18T04:28:52;79;54;
30342;PMS5003;17145;49.902;8.680;2022-12-18T04:31:19;75;46;
30342;PMS5003;17145;49.902;8.680;2022-12-18T04:33:47;57;51;
30342;PMS5003;17145;49.902;8.680;2022-12-18T04:36:14;69;52;
30342;PMS5003;17145;49.902;8.680;2022-12-18T04:38:42;68;60;
30342;PMS5003;17145;49.902;8.680;2022-12-18T04:41:09;67;55;
30342;PMS5003;17145;49.902;8.680;2022-12-18T04:43:40;65;58;
30342;PMS5003;17145;49.902;8.680;2022-12-18T04:46:07;83;55;
30342;PMS5003;17145;49.902;8.680;2022-12-18T04:48:35;73;57;
30342;PMS5003;17145;49.902;8.680;2022-12-18T04:51:04;79;57;
30342;PMS5003;17145;49.902;8.680;2022-12-18T04:53:32;73;48;
30342;PMS5003;17145;49.902;8.680;2022-12-18T04:56:04;77;58;
30342;PMS5003;17145;49.902;8.680;2022-12-18T04:58:33;85;67;
30342;PMS5003;17145;49.902;8.680;2022-12-18T05:01:00;73;48;
30342;PMS5003;17145;49.902;8.680;2022-12-18T05:03:28;77;48;
30342;PMS5003;17145;49.902;8.680;2022-12-18T05:05:55;73;61;
30342;PMS5003;17145;49.902;8.680;2022-12-18T05:08:23;80;60;
30342;PMS5003;17145;49.902;8.680;2022-12-18T05:13:26;73;64;
30342;PMS5003;17145;49.902;8.680;2022-12-18T05:15:54;67;52;
30342;PMS5003;17145;49.902;8.680;2022-12-18T05:18:22;80;60;
30342;PMS5003;17145;49.902;8.680;2022-12-18T05:20:51;82;57;
30342;PMS5003;17145;49.902;8.680;2022-12-18T05:23:18;70;51;
30342;PMS5003;17145;49.902;8.680;2022-12-18T05:25:50;87;64;
30342;PMS5003;17145;49.902;8.680;2022-12-18T05:28:18;76;51;
30342;PMS5003;17145;49.902;8.680;2022-12-18T05:30:47;79;52;
30342;PMS5003;17145;49.902;8.680;2022-12-18T05:33:15;71;52;
30342;PMS5003;17145;49.902;8.680;2022-12-18T05:35:43;74;62;
30342;PMS5003;17145;49.902;8.680;2022-12-18T05:38:10;81;51;
30342;PMS5003;17145;49.902;8.680;2022-12-18T05:40:41;65;48;
30342;PMS5003;17145;49.902;8.680;2022-12-18T05:43:08;79;57;
30342;PMS5003;17145;49.902;8.680;2022-12-18T05:45:36;109;101;
30342;PMS5003;17145;49.902;8.680;2022-12-18T05:48:04;80;60;
30342;PMS5003;17145;49.902;8.680;2022-12-18T05:50:33;74;57;
30342;PMS5003;17145;49.902;8.680;2022-12-18T05:53:01;74;54;
30342;PMS5003;17145;49.902;8.680;2022-12-18T05:55:28;84;55;
30342;PMS5003;17145;49.902;8.680;2022-12-18T05:57:59;76;55;
30342;PMS5003;17145;49.902;8.680;2022-12-18T06:00:26;82;54;
30342;PMS5003;17145;49.902;8.680;2022-12-18T06:02:54;80;55;
30342;PMS5003;17145;49.902;8.680;2022-12-18T06:05:21;83;55;
30342;PMS5003;17145;49.902;8.680;2022-12-18T06:07:48;76;52;
30342;PMS5003;17145;49.902;8.680;2022-12-18T06:10:16;68;51;
30342;PMS5003;17145;49.902;8.680;2022-12-18T06:12:44;77;58;
30342;PMS5003;17145;49.902;8.680;2022-12-18T06:15:11;76;61;
30342;PMS5003;17145;49.902;8.680;2022-12-18T06:17:39;74;58;
30342;PMS5003;17145;49.902;8.680;2022-12-18T06:20:06;69;55;
30342;PMS5003;17145;49.902;8.680;2022-12-18T06:22:34;82;63;
30342;PMS5003;17145;49.902;8.680;2022-12-18T06:25:01;92;69;
30342;PMS5003;17145;49.902;8.680;2022-12-18T06:27:31;73;51;
30342;PMS5003;17145;49.902;8.680;2022-12-18T06:29:58;67;54;
30342;PMS5003;17145;49.902;8.680;2022-12-18T06:32:26;76;60;
30342;PMS5003;17145;49.902;8.680;2022-12-18T06:34:53;79;54;
30342;PMS5003;17145;49.902;8.680;2022-12-18T06:37:21;79;62;
30342;PMS5003;17145;49.902;8.680;2022-12-18T06:39:48;70;51;
30342;PMS5003;17145;49.902;8.680;2022-12-18T06:42:16;82;57;
30342;PMS5003;17145;49.902;8.680;2022-12-18T06:44:43;79;49;
30342;PMS5003;17145;49.902;8.680;2022-12-18T06:47:10;62;51;
30342;PMS5003;17145;49.902;8.680;2022-12-18T06:49:38;89;52;
30342;PMS5003;17145;49.902;8.680;2022-12-18T06:52:05;83;51;
30342;PMS5003;17145;49.902;8.680;2022-12-18T06:54:32;86;61;
30342;PMS5003;17145;49.902;8.680;2022-12-18T06:57:00;71;55;
30342;PMS5003;17145;49.902;8.680;2022-12-18T06:59:27;83;70;
30342;PMS5003;17145;49.902;8.680;2022-12-18T07:01:54;67;54;
30342;PMS5003;17145;49.902;8.680;2022-12-18T07:04:24;67;49;
30342;PMS5003;17145;49.902;8.680;2022-12-18T07:06:54;67;58;
30342;PMS5003;17145;49.902;8.680;2022-12-18T07:09:22;77;52;
30342;PMS5003;17145;49.902;8.680;2022-12-18T07:11:49;80;54;
30342;PMS5003;17145;49.902;8.680;2022-12-18T07:14:16;70;51;
30342;PMS5003;17145;49.902;8.680;2022-12-18T07:16:43;89;60;
30342;PMS5003;17145;49.902;8.680;2022-12-18T07:19:11;86;62;
30342;PMS5003;17145;49.902;8.680;2022-12-18T07:21:38;88;64;
30342;PMS5003;17145;49.902;8.680;2022-12-18T07:24:06;76;52;
30342;PMS5003;17145;49.902;8.680;2022-12-18T07:26:34;84;64;
30342;PMS5003;17145;49.902;8.680;2022-12-18T07:29:01;77;60;
30342;PMS5003;17145;49.902;8.680;2022-12-18T07:31:28;80;68;
30342;PMS5003;17145;49.902;8.680;2022-12-18T07:33:56;71;57;
30342;PMS5003;17145;49.902;8.680;2022-12-18T07:36:23;79;63;
30342;PMS5003;17145;49.902;8.680;2022-12-18T07:38:51;80;54;
30342;PMS5003;17145;49.902;8.680;2022-12-18T07:41:18;80;71;
30342;PMS5003;17145;49.902;8.680;2022-12-18T07:43:46;76;56;
30342;PMS5003;17145;49.902;8.680;2022-12-18T07:46:15;75;59;
30342;PMS5003;17145;49.902;8.680;2022-12-18T07:48:44;67;52;
30342;PMS5003;17145;49.902;8.680;2022-12-18T07:51:12;79;70;
30342;PMS5003;17145;49.902;8.680;2022-12-18T07:53:39;77;61;
30342;PMS5003;17145;49.902;8.680;2022-12-18T07:56:09;73;58;
30342;PMS5003;17145;49.902;8.680;2022-12-18T07:58:37;67;57;
30342;PMS5003;17145;49.902;8.680;2022-12-18T08:01:05;67;48;
30342;PMS5003;17145;49.902;8.680;2022-12-18T08:03:34;92;71;
30342;PMS5003;17145;49.902;8.680;2022-12-18T08:06:02;95;66;
30342;PMS5003;17145;49.902;8.680;2022-12-18T08:08:31;80;57;
30342;PMS5003;17145;49.902;8.680;2022-12-18T08:10:58;71;60;
30342;PMS5003;17145;49.902;8.680;2022-12-18T08:13:27;76;66;
30342;PMS5003;17145;49.902;8.680;2022-12-18T08:15:55;92;73;
30342;PMS5003;17145;49.902;8.680;2022-12-18T08:18:23;58;49;
30342;PMS5003;17145;49.902;8.680;2022-12-18T08:20:51;73;53;
30342;PMS5003;17145;49.902;8.680;2022-12-18T08:23:19;66;51;
30342;PMS5003;17145;49.902;8.680;2022-12-18T08:25:46;114;109;
30342;PMS5003;17145;49.902;8.680;2022-12-18T08:28:17;98;91;
30342;PMS5003;17145;49.902;8.680;2022-12-18T08:30:45;104;88;
30342;PMS5003;17145;49.902;8.680;2022-12-18T08:33:12;88;61;
30342;PMS5003;17145;49.902;8.680;2022-12-18T08:35:39;72;55;
30342;PMS5003;17145;49.902;8.680;2022-12-18T08:38:06;85;56;
30342;PMS5003;17145;49.902;8.680;2022-12-18T08:40:34;64;47;
30342;PMS5003;17145;49.902;8.680;2022-12-18T08:43:01;64;50;
30342;PMS5003;17145;49.902;8.680;2022-12-18T08:45:28;83;70;
30342;PMS5003;17145;49.902;8.680;2022-12-18T08:47:56;85;63;
30342;PMS5003;17145;49.902;8.680;2022-12-18T08:50:23;70;62;
30342;PMS5003;17145;49.902;8.680;2022-12-18T08:52:51;75;53;
30342;PMS5003;17145;49.902;8.680;2022-12-18T08:55:18;84;59;
30342;PMS5003;17145;49.902;8.680;2022-12-18T08:57:47;85;63;
30342;PMS5003;17145;49.902;8.680;2022-12-18T09:00:15;82;65;
30342;PMS5003;17145;49.902;8.680;2022-12-18T09:02:43;79;72;
30342;PMS5003;17145;49.902;8.680;2022-12-18T09:05:10;65;51;
30342;PMS5003;17145;49.902;8.680;2022-12-18T09:07:38;94;69;
30342;PMS5003;17145;49.902;8.680;2022-12-18T09:10:05;91;70;
30342;PMS5003;17145;49.902;8.680;2022-12-18T09:12:33;99;87;
30342;PMS5003;17145;49.902;8.680;2022-12-18T09:15:01;84;57;
30342;PMS5003;17145;49.902;8.680;2022-12-18T09:17:28;81;54;
30342;PMS5003;17145;49.902;8.680;2022-12-18T09:19:55;87;68;
30342;PMS5003;17145;49.902;8.680;2022-12-18T09:22:23;74;53;
30342;PMS5003;17145;49.902;8.680;2022-12-18T09:24:50;78;57;
30342;PMS5003;17145;49.902;8.680;2022-12-18T09:27:17;100;78;
30342;PMS5003;17145;49.902;8.680;2022-12-18T09:29:45;80;60;
30342;PMS5003;17145;49.902;8.680;2022-12-18T09:32:12;90;69;
30342;PMS5003;17145;49.902;8.680;2022-12-18T09:34:39;80;62;
30342;PMS5003;17145;49.902;8.680;2022-12-18T09:37:07;71;50;
30342;PMS5003;17145;49.902;8.680;2022-12-18T09:39:34;96;78;
30342;PMS5003;17145;49.902;8.680;2022-12-18T09:42:02;87;65;
30342;PMS5003;17145;49.902;8.680;2022-12-18T09:44:30;66;53;
30342;PMS5003;17145;49.902;8.680;2022-12-18T09:47:03;99;74;
30342;PMS5003;17145;49.902;8.680;2022-12-18T09:49:39;91;69;
30342;PMS5003;17145;49.902;8.680;2022-12-18T09:52:11;72;48;
30342;PMS5003;17145;49.902;8.680;2022-12-18T09:54:43;95;72;
30342;PMS5003;17145;49.902;8.680;2022-12-18T09:57:17;78;65;
30342;PMS5003;17145;49.902;8.680;2022-12-18T09:59:49;91;67;
30342;PMS5003;17145;49.902;8.680;2022-12-18T10:02:22;98;83;
30342;PMS5003;17145;49.902;8.680;2022-12-18T10:04:55;78;62;
30342;PMS5003;17145;49.902;8.680;2022-12-18T10:07:31;74;56;
30342;PMS5003;17145;49.902;8.680;2022-12-18T10:10:13;73;56;
30342;PMS5003;17145;49.902;8.680;2022-12-18T10:12:51;73;58;
30342;PMS5003;17145;49.902;8.680;2022-12-18T10:15:28;84;62;
30342;PMS5003;17145;49.902;8.680;2022-12-18T10:18:04;76;59;
30342;PMS5003;17145;49.902;8.680;2022-12-18T10:20:44;90;71;
30342;PMS5003;17145;49.902;8.680;2022-12-18T10:23:17;71;57;
30342;PMS5003;17145;49.902;8.680;2022-12-18T10:25:50;77;50;
30342;PMS5003;17145;49.902;8.680;2022-12-18T10:28:22;87;66;
30342;PMS5003;17145;49.902;8.680;2022-12-18T10:30:51;97;80;
30342;PMS5003;17145;49.902;8.680;2022-12-18T10:33:19;103;85;
30342;PMS5003;17145;49.902;8.680;2022-12-18T10:35:53;88;65;
30342;PMS5003;17145;49.902;8.680;2022-12-18T10:38:22;106;87;
30342;PMS5003;17145;49.902;8.680;2022-12-18T10:40:53;87;64;
30342;PMS5003;17145;49.902;8.680;2022-12-18T10:43:24;89;67;
30342;PMS5003;17145;49.902;8.680;2022-12-18T10:46:00;83;67;
30342;PMS5003;17145;49.902;8.680;2022-12-18T10:48:33;98;76;
30342;PMS5003;17145;49.902;8.680;2022-12-18T10:51:03;87;62;
30342;PMS5003;17145;49.902;8.680;2022-12-18T10:53:33;76;56;
30342;PMS5003;17145;49.902;8.680;2022-12-18T10:56:03;79;59;
30342;PMS5003;17145;49.902;8.680;2022-12-18T10:58:33;83;65;
30342;PMS5003;17145;49.902;8.680;2022-12-18T11:01:04;86;68;
30342;PMS5003;17145;49.902;8.680;2022-12-18T11:03:34;101;77;
30342;PMS5003;17145;49.902;8.680;2022-12-18T11:06:04;104;89;
30342;PMS5003;17145;49.902;8.680;2022-12-18T11:08:34;86;61;
30342;PMS5003;17145;49.902;8.680;2022-12-18T11:11:02;90;76;
30342;PMS5003;17145;49.902;8.680;2022-12-18T11:13:31;77;65;
30342;PMS5003;17145;49.902;8.680;2022-12-18T11:15:59;80;65;
30342;PMS5003;17145;49.902;8.680;2022-12-18T11:18:27;96;79;
30342;PMS5003;17145;49.902;8.680;2022-12-18T11:20:57;82;56;
30342;PMS5003;17145;49.902;8.680;2022-12-18T11:23:28;79;62;
30342;PMS5003;17145;49.902;8.680;2022-12-18T11:25:56;100;77;
30342;PMS5003;17145;49.902;8.680;2022-12-18T11:28:27;45;41;
30342;PMS5003;17145;49.902;8.680;2022-12-18T11:33:44;46;43;
30342;PMS5003;17145;49.902;8.680;2022-12-18T11:36:17;53;37;
30342;PMS5003;17145;49.902;8.680;2022-12-18T11:38:45;52;40;
30342;PMS5003;17145;49.902;8.680;2022-12-18T11:41:16;52;39;
30342;PMS5003;17145;49.902;8.680;2022-12-18T11:43:50;52;40;
30342;PMS5003;17145;49.902;8.680;2022-12-18T11:46:23;54;36;
30342;PMS5003;17145;49.902;8.680;2022-12-18T11:48:58;51;40;
30342;PMS5003;17145;49.902;8.680;2022-12-18T11:51:32;48;39;
30342;PMS5003;17145;49.902;8.680;2022-12-18T11:54:08;45;36;
30342;PMS5003;17145;49.902;8.680;2022-12-18T11:56:41;40;36;
30342;PMS5003;17145;49.902;8.680;2022-12-18T11:59:15;40;36;
30342;PMS5003;17145;49.902;8.680;2022-12-18T12:01:52;37;36;
30342;PMS5003;17145;49.902;8.680;2022-12-18T12:04:31;53;37;
30342;PMS5003;17145;49.902;8.680;2022-12-18T12:07:10;43;34;
30342;PMS5003;17145;49.902;8.680;2022-12-18T12:09:48;58;39;
30342;PMS5003;17145;49.902;8.680;2022-12-18T12:12:27;52;39;
30342;PMS5003;17145;49.902;8.680;2022-12-18T12:15:04;48;40;
30342;PMS5003;17145;49.902;8.680;2022-12-18T12:17:41;57;43;
30342;PMS5003;17145;49.902;8.680;2022-12-18T12:20:19;40;36;
30342;PMS5003;17145;49.902;8.680;2022-12-18T12:22:54;48;43;
30342;PMS5003;17145;49.902;8.680;2022-12-18T12:25:30;55;36;
30342;PMS5003;17145;49.902;8.680;2022-12-18T12:28:08;55;43;
30342;PMS5003;17145;49.902;8.680;2022-12-18T12:30:48;55;45;
30342;PMS5003;17145;49.902;8.680;2022-12-18T12:33:28;48;33;
30342;PMS5003;17145;49.902;8.680;2022-12-18T12:36:05;57;34;
30342;PMS5003;17145;49.902;8.680;2022-12-18T12:38:41;48;40;
30342;PMS5003;17145;49.902;8.680;2022-12-18T12:41:11;55;37;
30342;PMS5003;17145;49.902;8.680;2022-12-18T12:43:42;57;40;
30342;PMS5003;17145;49.902;8.680;2022-12-18T12:46:13;40;36;
30342;PMS5003;17145;49.902;8.680;2022-12-18T12:48:45;57;36;
30342;PMS5003;17145;49.902;8.680;2022-12-18T12:51:16;42;36;
30342;PMS5003;17145;49.902;8.680;2022-12-18T12:53:47;49;45;
30342;PMS5003;17145;49.902;8.680;2022-12-18T12:56:16;39;36;
30342;PMS5003;17145;49.902;8.680;2022-12-18T12:58:46;39;34;
30342;PMS5003;17145;49.902;8.680;2022-12-18T13:01:25;54;37;
30342;PMS5003;17145;49.902;8.680;2022-12-18T13:04:02;48;39;
30342;PMS5003;17145;49.902;8.680;2022-12-18T13:06:39;45;37;
30342;PMS5003;17145;49.902;8.680;2022-12-18T13:09:11;58;36;
30342;PMS5003;17145;49.902;8.680;2022-12-18T13:11:39;54;37;
30342;PMS5003;17145;49.902;8.680;2022-12-18T13:14:12;52;40;
30342;PMS5003;17145;49.902;8.680;2022-12-18T13:16:46;57;37;
30342;PMS5003;17145;49.902;8.680;2022-12-18T13:21:52;46;34;
30342;PMS5003;17145;49.902;8.680;2022-12-18T13:24:23;45;36;
30342;PMS5003;17145;49.902;8.680;2022-12-18T13:26:53;61;36;
30342;PMS5003;17145;49.902;8.680;2022-12-18T13:34:47;42;33;
30342;PMS5003;17145;49.902;8.680;2022-12-18T13:42:50;51;37;
30342;PMS5003;17145;49.902;8.680;2022-12-18T13:48:04;54;34;
30342;PMS5003;17145;49.902;8.680;2022-12-18T13:50:41;60;37;
30342;PMS5003;17145;49.902;8.680;2022-12-18T13:53:12;48;34;
30342;PMS5003;17145;49.902;8.680;2022-12-18T13:55:46;57;40;
30342;PMS5003;17145;49.902;8.680;2022-12-18T13:58:15;46;34;
30342;PMS5003;17145;49.902;8.680;2022-12-18T14:00:43;55;39;
30342;PMS5003;17145;49.902;8.680;2022-12-18T14:03:17;45;33;
30342;PMS5003;17145;49.902;8.680;2022-12-18T14:05:52;55;33;
30342;PMS5003;17145;49.902;8.680;2022-12-18T14:08:22;42;36;
30342;PMS5003;17145;49.902;8.680;2022-12-18T14:10:57;40;34;
30342;PMS5003;17145;49.902;8.680;2022-12-18T14:13:26;51;37;
30342;PMS5003;17145;49.902;8.680;2022-12-18T14:15:57;43;33;
30342;PMS5003;17145;49.902;8.680;2022-12-18T14:18:29;36;34;
30342;PMS5003;17145;49.902;8.680;2022-12-18T14:21:05;34;28;
30342;PMS5003;17145;49.902;8.680;2022-12-18T14:23:39;51;34;
30342;PMS5003;17145;49.902;8.680;2022-12-18T14:28:48;43;31;
30342;PMS5003;17145;49.902;8.680;2022-12-18T14:31:17;61;36;
30342;PMS5003;17145;49.902;8.680;2022-12-18T14:33:45;40;34;
30342;PMS5003;17145;49.902;8.680;2022-12-18T14:36:15;39;34;
30342;PMS5003;17145;49.902;8.680;2022-12-18T14:38:48;49;36;
30342;PMS5003;17145;49.902;8.680;2022-12-18T14:41:18;49;34;
30342;PMS5003;17145;49.902;8.680;2022-12-18T14:43:47;48;37;
30342;PMS5003;17145;49.902;8.680;2022-12-18T14:48:54;40;33;
30342;PMS5003;17145;49.902;8.680;2022-12-18T14:51:23;61;37;
30342;PMS5003;17145;49.902;8.680;2022-12-18T14:53:56;43;39;
30342;PMS5003;17145;49.902;8.680;2022-12-18T14:56:26;60;37;
30342;PMS5003;17145;49.902;8.680;2022-12-18T14:58:56;46;39;
30342;PMS5003;17145;49.902;8.680;2022-12-18T15:01:26;30;28;
30342;PMS5003;17145;49.902;8.680;2022-12-18T15:03:56;60;37;
30342;PMS5003;17145;49.902;8.680;2022-12-18T15:06:27;63;36;
30342;PMS5003;17145;49.902;8.680;2022-12-18T15:08:57;48;34;
30342;PMS5003;17145;49.902;8.680;2022-12-18T15:11:28;39;33;
30342;PMS5003;17145;49.902;8.680;2022-12-18T15:16:42;55;33;
30342;PMS5003;17145;49.902;8.680;2022-12-18T15:19:10;48;40;
30342;PMS5003;17145;49.902;8.680;2022-12-18T15:21:37;39;28;
30342;PMS5003;17145;49.902;8.680;2022-12-18T15:24:14;48;36;
30342;PMS5003;17145;49.902;8.680;2022-12-18T15:26:44;43;33;
30342;PMS5003;17145;49.902;8.680;2022-12-18T15:29:15;51;34;
30342;PMS5003;17145;49.902;8.680;2022-12-18T15:34:26;43;28;
30342;PMS5003;17145;49.902;8.680;2022-12-18T15:36:54;49;33;
30342;PMS5003;17145;49.902;8.680;2022-12-18T15:39:22;40;36;
30342;PMS5003;17145;49.902;8.680;2022-12-18T15:41:49;42;33;
30342;PMS5003;17145;49.902;8.680;2022-12-18T15:44:21;39;34;
30342;PMS5003;17145;49.902;8.680;2022-12-18T15:46:50;42;36;
30342;PMS5003;17145;49.902;8.680;2022-12-18T15:49:17;45;33;
30342;PMS5003;17145;49.902;8.680;2022-12-18T15:51:45;37;31;
30342;PMS5003;17145;49.902;8.680;2022-12-18T15:54:18;40;37;
30342;PMS5003;17145;49.902;8.680;2022-12-18T15:56:45;37;34;
30342;PMS5003;17145;49.902;8.680;2022-12-18T15:59:14;39;34;
30342;PMS5003;17145;49.902;8.680;2022-12-18T16:01:43;42;33;
30342;PMS5003;17145;49.902;8.680;2022-12-18T16:04:12;37;31;
30342;PMS5003;17145;49.902;8.680;2022-12-18T16:06:41;46;36;
30342;PMS5003;17145;49.902;8.680;2022-12-18T16:09:09;52;33;
30342;PMS5003;17145;49.902;8.680;2022-12-18T16:11:36;40;31;
30342;PMS5003;17145;49.902;8.680;2022-12-18T16:14:08;37;31;
30342;PMS5003;17145;49.902;8.680;2022-12-18T16:16:42;39;34;
30342;PMS5003;17145;49.902;8.680;2022-12-18T16:19:10;55;36;
30342;PMS5003;17145;49.902;8.680;2022-12-18T16:21:38;39;36;
30342;PMS5003;17145;49.902;8.680;2022-12-18T16:24:05;39;30;
30342;PMS5003;17145;49.902;8.680;2022-12-18T16:26:39;49;34;
30342;PMS5003;17145;49.902;8.680;2022-12-18T16:29:07;40;31;
30342;PMS5003;17145;49.902;8.680;2022-12-18T16:31:34;45;30;
30342;PMS5003;17145;49.902;8.680;2022-12-18T16:34:10;51;42;
30342;PMS5003;17145;49.902;8.680;2022-12-18T16:36:39;31;31;
30342;PMS5003;17145;49.902;8.680;2022-12-18T16:39:06;42;34;
30342;PMS5003;17145;49.902;8.680;2022-12-18T16:41:33;42;37;
30342;PMS5003;17145;49.902;8.680;2022-12-18T16:44:01;33;30;
30342;PMS5003;17145;49.902;8.680;2022-12-18T16:46:29;43;34;
30342;PMS5003;17145;49.902;8.680;2022-12-18T16:48:57;39;33;
30342;PMS5003;17145;49.902;8.680;2022-12-18T16:51:25;36;33;
30342;PMS5003;17145;49.902;8.680;2022-12-18T16:53:53;54;36;
30342;PMS5003;17145;49.902;8.680;2022-12-18T16:56:22;37;34;
30342;PMS5003;17145;49.902;8.680;2022-12-18T16:58:50;33;33;
30342;PMS5003;17145;49.902;8.680;2022-12-18T17:01:18;36;31;
30342;PMS5003;17145;49.902;8.680;2022-12-18T17:03:50;48;36;
30342;PMS5003;17145;49.902;8.680;2022-12-18T17:06:18;34;33;
30342;PMS5003;17145;49.902;8.680;2022-12-18T17:08:46;39;34;